createdAt,value
2022-12-11T00:44:03.359Z,12.84
2022-12-11T00:49:06.962Z,12.60
2022-12-11T00:59:43.085Z,12.56
2022-12-11T01:05:09.209Z,12.68
2022-12-11T01:10:22.107Z,12.69
2022-12-11T01:15:29.627Z,12.66
2022-12-11T01:20:36.468Z,12.80
2022-12-11T01:25:48.176Z,12.90
2022-12-11T01:30:53.496Z,13.12
2022-12-11T01:35:57.139Z,12.71
2022-12-11T01:41:15.363Z,12.62
2022-12-11T01:46:20.707Z,12.70
2022-12-11T01:51:25.419Z,12.80
2022-12-11T01:56:31.872Z,12.65
2022-12-11T02:01:40.722Z,12.64
2022-12-11T02:06:56.761Z,12.45
2022-12-11T02:12:04.708Z,12.38
2022-12-11T02:17:18.129Z,12.30
2022-12-11T02:22:36.673Z,12.41
2022-12-11T02:27:46.843Z,12.22
2022-12-11T02:32:57.155Z,12.19
2022-12-11T02:38:05.134Z,12.07
2022-12-11T02:43:12.378Z,11.93
2022-12-11T02:48:18.821Z,11.99
2022-12-11T02:53:38.323Z,12.02
2022-12-11T02:58:47.333Z,11.94
2022-12-11T03:04:07.187Z,11.96
2022-12-11T03:09:10.797Z,11.87
2022-12-11T03:14:16.810Z,11.86
2022-12-11T03:19:29.600Z,11.88
2022-12-11T03:24:51.938Z,11.78
2022-12-11T03:29:59.175Z,11.68
2022-12-11T03:35:18.836Z,11.53
2022-12-11T03:40:25.505Z,11.59
2022-12-11T03:45:31.049Z,11.40
2022-12-11T03:50:37.518Z,11.15
2022-12-11T03:55:42.327Z,11.17
2022-12-11T04:00:46.058Z,10.95
2022-12-11T04:05:53.756Z,11.03
2022-12-11T04:11:27.117Z,10.96
2022-12-11T04:16:30.707Z,11.09
2022-12-11T04:21:39.415Z,10.94
2022-12-11T04:26:43.786Z,10.97
2022-12-11T04:31:47.977Z,11.00
2022-12-11T04:36:54.026Z,11.31
2022-12-11T04:41:57.652Z,11.06
2022-12-11T04:47:14.642Z,11.15
2022-12-11T04:52:38.056Z,11.03
2022-12-11T04:57:41.729Z,11.02
2022-12-11T05:02:45.367Z,10.84
2022-12-11T05:07:50.786Z,10.85
2022-12-11T05:12:54.437Z,10.69
2022-12-11T05:17:58.076Z,10.49
2022-12-11T05:23:04.453Z,10.51
2022-12-11T05:28:08.028Z,10.37
2022-12-11T05:33:11.664Z,10.34
2022-12-11T05:38:16.968Z,10.22
2022-12-11T05:43:20.556Z,10.20
2022-12-11T05:48:24.202Z,10.23
2022-12-11T05:53:29.567Z,10.34
2022-12-11T05:58:33.917Z,10.34
2022-12-11T06:03:37.674Z,10.36
2022-12-11T06:09:02.114Z,10.43
2022-12-11T06:14:05.805Z,10.45
2022-12-11T06:19:15.318Z,10.57
2022-12-11T06:24:34.551Z,10.61
2022-12-11T06:29:46.123Z,10.60
2022-12-11T06:34:49.698Z,10.61
2022-12-11T06:39:54.937Z,10.74
2022-12-11T06:45:09.006Z,10.78
2022-12-11T06:50:12.786Z,10.73
2022-12-11T06:55:31.365Z,10.67
2022-12-11T07:00:36.486Z,10.49
2022-12-11T07:05:40.154Z,10.52
2022-12-11T07:10:45.395Z,10.48
2022-12-11T07:15:49.017Z,10.55
2022-12-11T07:21:08.329Z,10.54
2022-12-11T07:26:15.330Z,10.30
2022-12-11T07:31:20.485Z,10.21
2022-12-11T07:36:40.837Z,10.04
2022-12-11T07:41:49.017Z,9.90
2022-12-11T07:46:52.702Z,9.67
2022-12-11T07:51:56.282Z,9.58
2022-12-11T07:57:01.565Z,9.53
2022-12-11T08:02:05.611Z,9.49
2022-12-11T08:07:14.612Z,9.34
2022-12-11T08:12:19.849Z,9.36
2022-12-11T08:17:28.789Z,9.40
2022-12-11T08:22:58.918Z,9.50
2022-12-11T08:28:04.691Z,9.48
2022-12-11T08:33:08.354Z,9.51
2022-12-11T08:38:11.965Z,9.22
2022-12-11T08:43:17.248Z,9.34
2022-12-11T08:48:20.833Z,9.42
2022-12-11T08:53:24.417Z,9.48
2022-12-11T08:58:29.706Z,9.58
2022-12-11T09:03:33.309Z,9.53
2022-12-11T09:08:36.943Z,9.47
2022-12-11T09:13:43.276Z,9.31
2022-12-11T09:18:46.572Z,9.19
2022-12-11T09:23:50.657Z,9.14
2022-12-11T09:28:55.959Z,9.11
2022-12-11T09:34:01.273Z,8.98
2022-12-11T09:39:06.758Z,9.01
2022-12-11T09:44:25.258Z,8.80
2022-12-11T09:49:35.866Z,8.92
2022-12-11T09:54:44.744Z,8.91
2022-12-11T10:00:12.000Z,8.93
2022-12-11T10:05:23.149Z,8.70
2022-12-11T10:10:38.302Z,8.68
2022-12-11T10:15:52.512Z,8.63
2022-12-11T10:20:56.512Z,8.71
2022-12-11T10:26:06.655Z,8.75
2022-12-11T10:31:18.431Z,8.65
2022-12-11T10:36:28.059Z,8.65
2022-12-11T10:41:38.663Z,8.67
2022-12-11T10:46:44.354Z,8.65
2022-12-11T10:51:47.992Z,8.61
2022-12-11T10:56:51.834Z,8.51
2022-12-11T11:01:58.104Z,8.58
2022-12-11T11:07:04.902Z,8.65
2022-12-11T11:12:20.817Z,8.65
2022-12-11T11:17:29.503Z,8.62
2022-12-11T11:22:41.449Z,8.53
2022-12-11T11:27:49.819Z,8.50
2022-12-11T11:32:57.228Z,8.54
2022-12-11T11:38:14.763Z,8.52
2022-12-11T11:43:24.766Z,8.57
2022-12-11T11:48:41.077Z,8.60
2022-12-11T11:53:49.381Z,8.56
2022-12-11T11:59:02.259Z,8.50
2022-12-11T12:04:07.626Z,8.38
2022-12-11T12:09:22.404Z,8.33
2022-12-11T12:20:05.276Z,8.31
2022-12-11T12:25:20.075Z,8.27
2022-12-11T12:30:24.197Z,8.32
2022-12-11T12:35:36.493Z,8.38
2022-12-11T12:40:52.920Z,8.26
2022-12-11T12:46:06.038Z,8.14
2022-12-11T12:51:14.120Z,8.24
2022-12-11T12:56:18.221Z,8.11
2022-12-11T13:01:23.656Z,8.19
2022-12-11T13:06:34.835Z,8.28
2022-12-11T13:11:38.451Z,8.37
2022-12-11T13:16:43.277Z,8.29
2022-12-11T13:21:58.802Z,8.25
2022-12-11T13:27:11.165Z,8.27
2022-12-11T13:32:24.946Z,8.25
2022-12-11T13:37:34.889Z,8.17
2022-12-11T13:42:48.775Z,8.09
2022-12-11T13:47:52.512Z,8.11
2022-12-11T13:52:59.555Z,8.06
2022-12-11T13:58:03.195Z,8.07
2022-12-11T14:03:07.675Z,8.09
2022-12-11T14:08:13.200Z,8.05
2022-12-11T14:13:22.789Z,7.98
2022-12-11T14:18:29.962Z,7.97
2022-12-11T14:23:36.118Z,7.85
2022-12-11T14:28:43.392Z,7.92
2022-12-11T14:33:52.537Z,7.87
2022-12-11T14:39:01.743Z,7.95
2022-12-11T14:44:08.392Z,7.95
2022-12-11T14:49:22.350Z,7.92
2022-12-11T14:54:32.550Z,7.93
2022-12-11T14:59:39.954Z,7.88
2022-12-11T15:04:43.615Z,7.85
2022-12-11T15:09:52.652Z,7.84
2022-12-11T15:14:58.441Z,7.77
2022-12-11T15:20:07.004Z,7.70
2022-12-11T15:25:21.658Z,7.65
2022-12-11T15:30:31.191Z,7.67
2022-12-11T15:35:34.847Z,7.53
2022-12-11T15:40:40.408Z,7.56
2022-12-11T15:45:44.071Z,7.47
2022-12-11T15:50:47.878Z,7.41
2022-12-11T15:55:53.642Z,7.32
2022-12-11T16:00:57.238Z,7.35
2022-12-11T16:06:00.835Z,7.51
2022-12-11T16:11:06.296Z,7.69
2022-12-11T16:16:09.998Z,7.85
2022-12-11T16:21:16.871Z,7.93
2022-12-11T16:26:27.405Z,8.33
2022-12-11T16:31:31.042Z,8.69
2022-12-11T16:36:34.673Z,9.10
2022-12-11T16:41:40.101Z,9.64
2022-12-11T16:46:43.779Z,9.92
2022-12-11T16:51:47.531Z,9.88
2022-12-11T16:56:52.793Z,10.13
2022-12-11T17:01:56.455Z,10.39
2022-12-11T17:07:00.780Z,10.63
2022-12-11T17:12:06.826Z,10.60
2022-12-11T17:17:10.564Z,10.78
2022-12-11T17:22:14.182Z,10.79
2022-12-11T17:27:19.512Z,10.80
2022-12-11T17:32:23.130Z,11.06
2022-12-11T17:37:26.758Z,11.21
2022-12-11T17:42:32.194Z,11.07
2022-12-11T17:47:35.827Z,10.95
2022-12-11T17:52:43.981Z,11.14
2022-12-11T17:57:49.665Z,11.30
2022-12-11T18:02:53.640Z,11.36
2022-12-11T18:07:58.142Z,11.12
2022-12-11T18:13:03.672Z,10.92
2022-12-11T18:18:08.029Z,10.85
2022-12-11T18:23:11.623Z,10.58
2022-12-11T18:28:16.935Z,10.67
2022-12-11T18:33:20.552Z,10.63
2022-12-11T18:38:24.218Z,10.69
2022-12-11T18:43:29.480Z,10.81
2022-12-11T18:48:33.152Z,10.97
2022-12-11T18:53:37.532Z,11.18
2022-12-11T18:58:43.731Z,11.16
2022-12-11T19:03:47.521Z,10.96
2022-12-11T19:08:51.456Z,10.75
2022-12-11T19:13:57.551Z,10.71
2022-12-11T19:19:02.547Z,10.78
2022-12-11T19:24:08.179Z,10.73
2022-12-11T19:29:19.870Z,10.86
2022-12-11T19:34:24.105Z,11.05
2022-12-11T19:39:27.756Z,11.05
2022-12-11T19:44:33.072Z,11.14
2022-12-11T19:49:36.684Z,11.07
2022-12-11T19:54:40.279Z,11.10
2022-12-11T19:59:45.505Z,11.09
2022-12-11T20:04:49.119Z,11.09
2022-12-11T20:09:52.741Z,11.20
2022-12-11T20:14:58.997Z,10.94
2022-12-11T20:20:01.928Z,11.04
2022-12-11T20:25:06.033Z,11.17
2022-12-11T20:30:14.241Z,10.94
2022-12-11T20:35:18.605Z,10.95
2022-12-11T20:40:22.291Z,10.99
2022-12-11T20:45:27.700Z,11.05
2022-12-11T20:50:31.384Z,11.18
2022-12-11T20:55:35.013Z,11.38
2022-12-11T21:00:40.969Z,11.49
2022-12-11T21:05:46.623Z,11.51
2022-12-11T21:10:50.223Z,11.25
2022-12-11T21:15:55.523Z,11.52
2022-12-11T21:20:59.891Z,11.70
2022-12-11T21:26:03.633Z,11.74
2022-12-11T21:31:13.805Z,11.79
2022-12-11T21:36:18.391Z,11.89
2022-12-11T21:41:23.732Z,11.87
2022-12-11T21:46:29.482Z,11.83
2022-12-11T21:51:39.377Z,11.43
2022-12-11T21:56:45.197Z,11.46
2022-12-11T22:01:50.561Z,11.27
2022-12-11T22:06:54.576Z,11.16
2022-12-11T22:11:59.015Z,10.88
2022-12-11T22:17:05.050Z,11.15
2022-12-11T22:22:08.690Z,11.21
2022-12-11T22:27:12.324Z,10.95
2022-12-11T22:32:17.607Z,10.88
2022-12-11T22:37:21.194Z,10.93
2022-12-11T22:42:24.828Z,10.69
2022-12-11T22:47:30.090Z,10.28
2022-12-11T22:52:33.846Z,9.94
2022-12-11T22:57:38.261Z,10.06
2022-12-11T23:02:43.647Z,10.35
2022-12-11T23:07:47.440Z,10.02
2022-12-11T23:12:51.467Z,9.84
2022-12-11T23:17:56.767Z,9.94
2022-12-11T23:23:00.447Z,9.85
2022-12-11T23:28:04.144Z,9.81
2022-12-11T23:33:09.441Z,9.80
2022-12-11T23:38:13.088Z,9.96
2022-12-11T23:43:16.736Z,9.96
2022-12-11T23:48:22.175Z,9.86
2022-12-11T23:53:25.778Z,9.96
2022-12-11T23:58:29.393Z,9.87
